Time;durP1;ratioP1;P1;durP2;ratioP2;P2;SDS_P1;SDS_P2;PMS_P1;PMS_P2;Temp;Humidity;BMP_temperature;BMP_pressure;BME280_temperature;BME280_humidity;BME280_pressure;Samples;Min_cycle;Max_cycle;Signal;HPM_P1;HPM_P2
2021/09/02 00:03:58;;;;;;;10.13;4.88;;;19.30;66.80;;;;;;20822569;28;20429;-60
2021/09/02 00:13:58;;;;;;;7.15;4.75;;;19.20;66.90;;;;;;20820142;28;20030;-55
2021/09/02 00:23:59;;;;;;;7.28;5.28;;;19.30;67.00;;;;;;20820911;28;20030;-60
2021/09/02 00:33:59;;;;;;;11.25;5.50;;;19.30;66.90;;;;;;20820931;28;20412;-56
2021/09/02 00:44:00;;;;;;;9.13;4.40;;;19.30;66.90;;;;;;20819473;28;20021;-58
2021/09/02 00:54:01;;;;;;;10.57;4.60;;;19.30;66.80;;;;;;20819395;28;20033;-60
2021/09/02 01:04:03;;;;;;;7.97;5.40;;;19.40;66.90;;;;;;20818831;28;20033;-60
2021/09/02 01:14:04;;;;;;;6.90;5.32;;;19.40;66.80;;;;;;20819504;28;20021;-61
2021/09/02 01:24:05;;;;;;;13.93;6.22;;;19.40;66.80;;;;;;20819218;28;20108;-60
2021/09/02 01:34:06;;;;;;;12.55;4.55;;;19.40;66.60;;;;;;20817957;28;20057;-64
2021/09/02 01:44:06;;;;;;;10.65;4.65;;;19.30;66.60;;;;;;20817400;28;20404;-60
2021/09/02 01:54:07;;;;;;;10.05;4.85;;;19.30;66.60;;;;;;20822548;28;20036;-60
2021/09/02 02:04:07;;;;;;;8.48;4.93;;;19.30;66.60;;;;;;20831731;28;20041;-60
2021/09/02 02:14:08;;;;;;;12.55;6.47;;;19.30;66.30;;;;;;20831259;28;20071;-60
2021/09/02 02:24:08;;;;;;;6.60;4.53;;;19.30;66.30;;;;;;20830293;28;20105;-60
2021/09/02 02:34:09;;;;;;;9.57;5.60;;;19.30;66.30;;;;;;20829297;28;20117;-61
2021/09/02 02:44:10;;;;;;;10.97;5.03;;;19.30;66.30;;;;;;20827909;28;20029;-61
2021/09/02 02:54:10;;;;;;;10.23;5.97;;;19.30;66.20;;;;;;20828334;28;20839;-61
2021/09/02 03:04:11;;;;;;;7.13;4.68;;;19.30;66.40;;;;;;20827501;28;20087;-61
2021/09/02 03:14:11;;;;;;;6.93;5.55;;;19.30;66.40;;;;;;20829543;28;20034;-61
2021/09/02 03:24:12;;;;;;;10.45;4.88;;;19.30;66.40;;;;;;20829365;28;20049;-57
2021/09/02 03:34:12;;;;;;;7.85;5.35;;;19.30;66.40;;;;;;20829475;28;20029;-57
2021/09/02 03:44:13;;;;;;;13.73;6.20;;;19.30;66.50;;;;;;20824081;28;20451;-58
2021/09/02 03:54:13;;;;;;;8.80;5.40;;;19.30;66.50;;;;;;20823641;28;20083;-58
2021/09/02 04:04:14;;;;;;;9.32;5.10;;;19.30;66.60;;;;;;20823102;28;20065;-59
2021/09/02 04:14:14;;;;;;;9.67;4.67;;;19.30;66.60;;;;;;20821800;28;20036;-60
2021/09/02 04:24:15;;;;;;;8.73;5.63;;;19.30;66.70;;;;;;20821828;28;20865;-59
2021/09/02 04:34:16;;;;;;;12.02;6.43;;;19.30;66.80;;;;;;20821955;28;20035;-55
2021/09/02 04:44:17;;;;;;;8.13;5.75;;;19.30;66.90;;;;;;20797885;28;20041;-61
2021/09/02 04:54:17;;;;;;;10.82;6.10;;;19.30;67.00;;;;;;20820587;28;20081;-60
2021/09/02 05:04:18;;;;;;;10.68;6.57;;;19.30;67.00;;;;;;20818589;28;20052;-60
2021/09/02 05:14:18;;;;;;;10.88;6.57;;;19.20;67.00;;;;;;20818660;28;20472;-60
2021/09/02 05:24:19;;;;;;;10.17;6.57;;;19.30;67.10;;;;;;20818555;28;20044;-58
2021/09/02 05:34:20;;;;;;;11.70;6.22;;;19.30;67.00;;;;;;20817988;28;21085;-60
2021/09/02 05:48:42;;;;;;;17.33;7.18;;;19.30;67.10;;;;;;20784379;27;20607;-62
2021/09/02 05:58:42;;;;;;;21.58;7.85;;;19.20;67.40;;;;;;20807034;28;20025;-59
2021/09/02 06:08:43;;;;;;;13.43;7.28;;;19.30;67.20;;;;;;20806761;28;20049;-59
2021/09/02 06:18:43;;;;;;;16.27;7.82;;;19.30;67.30;;;;;;20749500;28;20034;-57
2021/09/02 06:28:44;;;;;;;20.63;8.63;;;19.30;67.50;;;;;;20820611;22;20167;-60
2021/09/02 06:38:44;;;;;;;23.08;9.20;;;19.40;67.50;;;;;;20844566;28;20017;-60
2021/09/02 06:48:45;;;;;;;16.80;8.13;;;19.20;67.60;;;;;;20886030;28;20092;-57
2021/09/02 06:58:45;;;;;;;22.33;8.93;;;19.30;67.70;;;;;;20837174;28;20025;-58
2021/09/02 07:08:46;;;;;;;22.23;9.15;;;19.10;68.10;;;;;;20829990;28;20116;-59
2021/09/02 07:18:47;;;;;;;13.50;7.43;;;19.20;68.00;;;;;;20829309;28;20104;-60
2021/09/02 07:28:47;;;;;;;14.20;6.38;;;19.20;67.90;;;;;;20821903;28;20448;-59
2021/09/02 07:38:48;;;;;;;12.20;6.47;;;19.30;67.50;;;;;;20819344;28;20072;-60
2021/09/02 07:48:48;;;;;;;14.80;6.43;;;19.50;67.30;;;;;;20825078;28;20493;-59
2021/09/02 07:58:49;;;;;;;20.00;6.65;;;19.50;66.50;;;;;;20810247;28;20112;-59
2021/09/02 08:08:49;;;;;;;13.90;5.33;;;19.60;66.50;;;;;;20823684;28;20055;-58
2021/09/02 08:18:50;;;;;;;15.32;5.40;;;19.60;66.40;;;;;;20823729;28;20451;-60
2021/09/02 08:28:51;;;;;;;11.18;6.65;;;19.60;66.10;;;;;;20822037;28;20098;-59
2021/09/02 08:38:52;;;;;;;13.15;5.40;;;19.50;65.70;;;;;;20820012;28;20476;-60
2021/09/02 08:48:54;;;;;;;10.35;5.72;;;19.50;65.40;;;;;;20821367;28;20595;-60
2021/09/02 08:58:54;;;;;;;9.32;5.15;;;19.70;65.40;;;;;;20809698;28;20663;-58
2021/09/02 09:08:55;;;;;;;12.68;6.13;;;19.80;65.50;;;;;;20819146;28;20025;-59
2021/09/02 09:18:55;;;;;;;11.15;6.53;;;19.70;65.40;;;;;;20818988;28;20038;-61
2021/09/02 09:29:01;;;;;;;13.45;6.22;;;19.80;65.10;;;;;;20818942;28;20124;-60
2021/09/02 09:39:09;;;;;;;13.18;6.40;;;19.80;65.00;;;;;;20813860;28;20033;-60
2021/09/02 09:49:10;;;;;;;11.73;6.15;;;19.80;65.00;;;;;;20818055;28;20021;-58
2021/09/02 09:59:10;;;;;;;10.40;5.93;;;19.90;64.70;;;;;;20817618;28;20391;-61
2021/09/02 10:09:11;;;;;;;11.23;5.93;;;19.90;64.30;;;;;;20817107;28;20032;-60
2021/09/02 10:19:12;;;;;;;9.05;5.35;;;20.10;64.10;;;;;;20815405;28;20109;-59
2021/09/02 10:29:34;;;;;;;8.88;6.13;;;20.10;64.00;;;;;;20821955;28;20553;-60
2021/09/02 10:39:41;;;;;;;10.27;5.65;;;20.10;64.20;;;;;;20831574;28;20021;-61
2021/09/02 10:49:42;;;;;;;12.50;6.85;;;20.10;64.00;;;;;;20829650;28;20033;-61
2021/09/02 10:59:46;;;;;;;12.43;5.13;;;20.10;64.30;;;;;;20827873;28;20037;-61
2021/09/02 11:09:48;;;;;;;11.68;5.57;;;20.20;64.30;;;;;;20829175;28;20028;-61
2021/09/02 11:19:49;;;;;;;7.72;4.45;;;20.20;64.30;;;;;;20826001;28;20373;-61
2021/09/02 11:29:49;;;;;;;28.77;6.93;;;20.30;64.20;;;;;;20827443;28;20041;-61
2021/09/02 11:39:52;;;;;;;13.93;5.65;;;20.30;64.10;;;;;;20826411;28;20032;-62
2021/09/02 11:49:58;;;;;;;13.43;5.53;;;20.30;64.30;;;;;;20824871;28;20036;-60
2021/09/02 11:59:59;;;;;;;12.68;5.85;;;20.30;64.40;;;;;;20811998;28;20483;-60
2021/09/02 12:10:00;;;;;;;15.70;6.18;;;20.30;64.50;;;;;;20825419;28;20104;-59
2021/09/02 12:20:03;;;;;;;12.93;5.33;;;20.20;64.60;;;;;;20824488;28;20030;-59
2021/09/02 12:30:03;;;;;;;10.82;6.15;;;20.20;64.80;;;;;;20844563;22;20470;-64
2021/09/02 12:40:11;;;;;;;15.23;6.03;;;20.10;64.90;;;;;;20785914;28;20041;-65
2021/09/02 12:50:13;;;;;;;26.63;8.07;;;20.20;64.70;;;;;;20822081;28;20118;-62
2021/09/02 13:00:24;;;;;;;14.35;6.75;;;20.20;65.10;;;;;;20821433;28;20036;-64
2021/09/02 13:10:27;;;;;;;23.15;6.65;;;20.20;65.30;;;;;;20820702;28;20449;-64
2021/09/02 13:20:28;;;;;;;21.00;5.97;;;20.10;65.30;;;;;;20821034;28;20060;-64
2021/09/02 13:30:29;;;;;;;23.30;5.97;;;20.10;65.30;;;;;;20819893;28;20041;-64
2021/09/02 13:40:29;;;;;;;15.45;6.43;;;20.10;65.10;;;;;;20818569;28;20036;-62
2021/09/02 13:50:30;;;;;;;13.45;5.72;;;20.20;65.10;;;;;;20818931;28;20030;-63
2021/09/02 14:00:30;;;;;;;14.35;5.60;;;20.10;65.00;;;;;;20817649;28;20033;-63
2021/09/02 14:10:32;;;;;;;13.60;5.60;;;20.10;64.90;;;;;;20834376;28;20396;-65
2021/09/02 14:20:33;;;;;;;12.43;6.28;;;20.20;65.00;;;;;;20834042;28;20029;-63
2021/09/02 14:30:33;;;;;;;11.13;6.03;;;20.10;65.50;;;;;;20825329;28;20025;-63
2021/09/02 14:40:34;;;;;;;10.10;6.53;;;20.20;64.90;;;;;;20831538;28;20102;-63
2021/09/02 14:50:35;;;;;;;12.48;5.38;;;20.20;65.00;;;;;;20831245;28;20486;-61
2021/09/02 15:00:35;;;;;;;11.63;6.90;;;20.20;64.80;;;;;;20830805;28;20022;-62
2021/09/02 15:10:36;;;;;;;7.90;5.00;;;20.10;64.60;;;;;;20829853;28;20460;-63
2021/09/02 15:20:36;;;;;;;8.57;5.30;;;20.10;64.50;;;;;;20828644;28;20028;-62
2021/09/02 15:30:37;;;;;;;8.30;5.35;;;20.10;64.30;;;;;;20827965;28;20038;-63
2021/09/02 15:40:37;;;;;;;8.60;5.88;;;20.10;64.50;;;;;;20826285;28;20029;-63
2021/09/02 15:50:38;;;;;;;8.02;6.00;;;20.10;64.50;;;;;;20826396;28;20025;-64
2021/09/02 16:00:38;;;;;;;9.75;5.95;;;20.10;64.30;;;;;;20825179;28;20403;-64
2021/09/02 16:10:39;;;;;;;15.18;8.20;;;20.10;64.40;;;;;;20823286;28;20037;-63
2021/09/02 16:20:39;;;;;;;8.33;6.10;;;20.10;64.40;;;;;;20823528;28;20659;-63
2021/09/02 16:30:40;;;;;;;12.55;7.72;;;20.10;64.30;;;;;;20822796;28;20479;-63
2021/09/02 16:40:41;;;;;;;13.35;7.45;;;20.20;64.20;;;;;;20822492;28;20033;-63
2021/09/02 16:50:41;;;;;;;31.90;10.57;;;20.20;64.00;;;;;;20787280;28;20525;-64
2021/09/02 17:00:42;;;;;;;16.58;6.82;;;20.20;65.40;;;;;;20820537;28;20064;-64
2021/09/02 17:10:43;;;;;;;20.65;8.05;;;20.30;65.00;;;;;;20823580;28;20079;-64
2021/09/02 17:20:43;;;;;;;15.90;6.95;;;20.30;64.80;;;;;;20824164;28;20034;-64
2021/09/02 17:30:44;;;;;;;17.48;7.63;;;20.20;65.30;;;;;;20816750;28;20044;-61
2021/09/02 17:40:44;;;;;;;18.13;8.50;;;20.20;65.50;;;;;;20819717;28;20439;-64
2021/09/02 17:50:45;;;;;;;19.33;8.07;;;20.30;66.00;;;;;;20746882;28;20069;-64
2021/09/02 18:38:42;;;;;;;18.20;7.95;;;20.00;67.30;;;;;;20988116;28;20133;-61
2021/09/02 18:48:44;;;;;;;13.40;6.63;;;20.00;67.50;;;;;;20971972;28;20036;-53
2021/09/02 18:58:44;;;;;;;12.50;5.75;;;19.90;66.50;;;;;;21110916;22;20044;-61
2021/09/02 19:08:50;;;;;;;18.63;7.20;;;19.90;66.30;;;;;;21090226;28;20520;-62
2021/09/02 19:18:51;;;;;;;16.33;6.72;;;20.00;66.80;;;;;;20932730;28;20439;-62
2021/09/02 19:28:54;;;;;;;15.73;7.72;;;20.00;67.20;;;;;;20886838;28;20038;-62
2021/09/02 19:38:56;;;;;;;12.48;7.40;;;20.00;68.00;;;;;;20813982;28;20022;-62
2021/09/02 19:48:59;;;;;;;19.13;7.93;;;20.00;68.10;;;;;;20807665;28;20033;-61
2021/09/02 19:59:02;;;;;;;14.35;6.68;;;20.00;68.10;;;;;;20815904;28;20029;-62
2021/09/02 20:09:04;;;;;;;14.35;7.03;;;20.10;68.30;;;;;;20827748;28;20577;-61
2021/09/02 20:19:05;;;;;;;15.48;8.32;;;20.00;68.20;;;;;;20828021;28;20357;-62
2021/09/02 20:29:07;;;;;;;12.68;7.30;;;20.00;68.50;;;;;;20828075;28;20030;-62
2021/09/02 20:39:14;;;;;;;13.95;6.50;;;19.90;68.50;;;;;;20826900;28;20110;-61
2021/09/02 20:49:17;;;;;;;9.80;6.40;;;19.90;68.60;;;;;;20826076;28;20033;-62
2021/09/02 20:59:19;;;;;;;8.35;6.07;;;19.90;68.50;;;;;;20823877;28;20106;-61
2021/09/02 21:09:21;;;;;;;11.07;6.60;;;19.90;68.50;;;;;;20823954;28;20115;-62
2021/09/02 21:19:21;;;;;;;9.60;6.38;;;19.90;68.40;;;;;;20823491;28;20088;-60
2021/09/02 21:29:32;;;;;;;13.70;7.32;;;19.80;68.30;;;;;;20821792;28;20025;-60
2021/09/02 21:39:41;;;;;;;6.72;5.10;;;19.80;68.30;;;;;;20822390;28;20056;-59
2021/09/02 21:49:43;;;;;;;8.18;5.88;;;19.80;68.30;;;;;;20822135;28;20021;-62
2021/09/02 21:59:47;;;;;;;9.55;5.43;;;19.80;68.20;;;;;;20821872;28;20037;-63
2021/09/02 22:09:48;;;;;;;12.23;5.90;;;19.80;68.10;;;;;;20820786;28;20025;-63
2021/09/02 22:20:17;;;;;;;7.93;5.90;;;19.80;68.20;;;;;;20807277;28;20037;-62
2021/09/02 22:30:18;;;;;;;;;;;19.80;68.00;;;;;;20809588;28;20052;-64
2021/09/02 22:40:21;;;;;;;9.13;6.50;;;19.80;67.90;;;;;;20819671;28;19972;-62
2021/09/02 22:50:23;;;;;;;9.15;5.32;;;19.80;67.80;;;;;;20819471;28;20026;-63
2021/09/02 23:00:24;;;;;;;8.52;6.32;;;19.80;67.90;;;;;;20818292;28;20037;-62
2021/09/02 23:10:34;;;;;;;9.63;6.00;;;19.80;67.70;;;;;;20817730;28;20059;-63
2021/09/02 23:20:36;;;;;;;6.93;5.18;;;19.70;67.70;;;;;;20825365;28;20113;-62
2021/09/02 23:30:37;;;;;;;9.10;5.60;;;19.70;67.60;;;;;;20832935;28;20214;-63
2021/09/02 23:40:38;;;;;;;7.85;6.25;;;19.70;67.50;;;;;;20831989;28;20029;-64
2021/09/02 23:50:40;;;;;;;9.32;6.28;;;19.70;67.40;;;;;;20830830;28;20036;-65
